Mont-Tremblant, Canada
Current Conditions -  °F | °C
As of 2:00 AM on Wednesday 22 Oct 2014 (Local Time) from CYMX Reporting Station
Overcast Overcast  
Wind Chill: 40°   Ceiling: 6000
Heat Index: 45°   Visibility: 25mi
Dew Point: 30°   Wind: 8mph
Humidity: 57%   Direction: 40°NE
Pressure: 30.2"   Gusts: 20mph
Location:  46.12°N, 74.6°W
Report Text: CYMX 220600Z 04007G17KT 010V090 25SM OVC060 07/M01 A3020 RMK SC8 SLP228
Loading
Personal Weather Stations






























Interactive Weather Map
Tropical Storm Tracking
New forecast layout! Learn more

10-Day Weather Forecast

Advertisements
Track Severe Weather on mobile